createdAt,value
2018-06-30T00:00:05.418Z,18.83
2018-06-30T00:01:05.142Z,18.82
2018-06-30T00:02:05.715Z,18.84
2018-06-30T00:03:05.406Z,18.8
2018-06-30T00:04:05.117Z,18.79
2018-06-30T00:05:05.375Z,18.76
2018-06-30T00:06:05.621Z,18.74
2018-06-30T00:07:05.347Z,18.7
2018-06-30T00:08:05.346Z,18.62
2018-06-30T00:09:05.329Z,18.64
2018-06-30T00:10:05.051Z,18.7
2018-06-30T00:11:05.304Z,18.65
2018-06-30T00:12:05.295Z,18.61
2018-06-30T00:13:05.554Z,18.54
2018-06-30T00:14:05.011Z,18.65
2018-06-30T00:15:05.267Z,18.57
2018-06-30T00:16:05.251Z,18.54
2018-06-30T00:17:05.508Z,18.52
2018-06-30T00:18:05.504Z,18.58
2018-06-30T00:19:04.962Z,18.49
2018-06-30T00:20:04.951Z,18.47
2018-06-30T00:21:05.468Z,18.47
2018-06-30T00:22:05.189Z,18.46
2018-06-30T00:23:05.184Z,18.43
2018-06-30T00:24:05.169Z,18.43
2018-06-30T00:25:05.159Z,18.49
2018-06-30T00:26:05.145Z,18.4
2018-06-30T00:27:04.871Z,18.47
2018-06-30T00:28:04.868Z,18.43
2018-06-30T00:29:05.120Z,18.39
2018-06-30T00:30:05.378Z,18.39
2018-06-30T00:31:05.091Z,18.34
2018-06-30T00:32:05.084Z,18.36
2018-06-30T00:33:05.342Z,18.31
2018-06-30T00:34:05.061Z,18.27
2018-06-30T00:35:05.319Z,18.29
2018-06-30T00:36:05.306Z,18.28
2018-06-30T00:37:05.304Z,18.24
2018-06-30T00:38:04.758Z,18.28
2018-06-30T00:39:05.276Z,18.29
2018-06-30T00:40:05.259Z,18.24
2018-06-30T00:41:05.250Z,18.21
2018-06-30T00:42:04.710Z,18.22
2018-06-30T00:43:04.966Z,18.17
2018-06-30T00:44:04.690Z,18.21
2018-06-30T00:45:04.940Z,18.21
2018-06-30T00:46:05.205Z,18.24
2018-06-30T00:47:04.933Z,18.15
2018-06-30T00:48:04.653Z,18.1
2018-06-30T00:49:04.928Z,18.15
2018-06-30T00:50:04.628Z,18.12
2018-06-30T00:51:05.147Z,18.18
2018-06-30T00:52:04.872Z,18.09
2018-06-30T00:53:05.123Z,18.07
2018-06-30T00:54:04.848Z,18.07
2018-06-30T00:55:04.833Z,18.03
2018-06-30T00:56:04.821Z,18.12
2018-06-30T00:57:04.814Z,17.99
2018-06-30T00:58:04.801Z,17.95
2018-06-30T00:59:05.060Z,18.02
2018-06-30T01:00:04.785Z,17.97
2018-06-30T01:01:04.781Z,18
2018-06-30T01:02:05.028Z,18.03
2018-06-30T01:03:04.485Z,17.99
2018-06-30T01:04:05.010Z,17.91
2018-06-30T01:05:04.732Z,17.88
2018-06-30T01:06:04.983Z,17.88
2018-06-30T01:07:05.010Z,17.87
2018-06-30T01:08:04.966Z,17.88
2018-06-30T01:09:04.693Z,17.82
2018-06-30T01:10:04.675Z,17.84
2018-06-30T01:11:04.408Z,17.81
2018-06-30T01:12:04.660Z,17.79
2018-06-30T01:13:04.637Z,17.71
2018-06-30T01:14:04.903Z,17.74
2018-06-30T01:15:04.642Z,17.71
2018-06-30T01:16:04.609Z,17.67
2018-06-30T01:17:04.334Z,17.62
2018-06-30T01:18:04.324Z,17.54
2018-06-30T01:19:04.308Z,17.59
2018-06-30T01:20:04.581Z,17.53
2018-06-30T01:21:04.830Z,17.63
2018-06-30T01:22:04.806Z,17.53
2018-06-30T01:23:04.808Z,17.51
2018-06-30T01:24:04.519Z,17.54
2018-06-30T01:25:04.778Z,17.43
2018-06-30T01:26:04.496Z,17.46
2018-06-30T01:27:04.492Z,17.44
2018-06-30T01:28:04.742Z,17.51
2018-06-30T01:29:04.460Z,17.55
2018-06-30T01:30:04.718Z,17.46
2018-06-30T01:31:04.172Z,17.48
2018-06-30T01:32:04.168Z,17.4
2018-06-30T01:33:04.157Z,17.38
2018-06-30T01:34:04.411Z,17.36
2018-06-30T01:35:04.397Z,17.4
2018-06-30T01:36:04.647Z,17.44
2018-06-30T01:37:04.639Z,17.41
2018-06-30T01:38:04.361Z,17.35
2018-06-30T01:39:04.351Z,17.36
2018-06-30T01:40:04.336Z,17.4
2018-06-30T01:41:04.329Z,17.4
2018-06-30T01:42:04.050Z,17.41
2018-06-30T01:43:04.051Z,17.29
2018-06-30T01:44:04.038Z,17.38
2018-06-30T01:45:04.546Z,17.35
2018-06-30T01:46:04.538Z,17.33
2018-06-30T01:47:03.999Z,17.28
2018-06-30T01:48:04.505Z,17.29
2018-06-30T01:49:04.239Z,17.28
2018-06-30T01:50:04.277Z,17.25
2018-06-30T01:51:04.482Z,17.26
2018-06-30T01:52:04.209Z,17.29
2018-06-30T01:53:04.191Z,17.14
2018-06-30T01:54:04.180Z,17.25
2018-06-30T01:55:04.169Z,17.25
2018-06-30T01:56:04.153Z,17.18
2018-06-30T01:57:04.417Z,17.2
2018-06-30T01:58:04.404Z,17.1
2018-06-30T01:59:04.392Z,17.15
2018-06-30T02:00:04.122Z,17.11
2018-06-30T02:01:04.367Z,17.08
2018-06-30T02:02:03.823Z,17.1
2018-06-30T02:03:04.335Z,17.07
2018-06-30T02:04:04.062Z,17.1
2018-06-30T02:05:04.059Z,17.07
2018-06-30T02:06:04.043Z,17.14
2018-06-30T02:07:04.298Z,17.08
2018-06-30T02:08:04.025Z,17.07
2018-06-30T02:09:04.272Z,17.11
2018-06-30T02:10:04.278Z,17.07
2018-06-30T02:11:03.985Z,17.1
2018-06-30T02:12:03.710Z,17.07
2018-06-30T02:13:03.965Z,17.07
2018-06-30T02:14:03.685Z,17.06
2018-06-30T02:15:03.970Z,17.03
2018-06-30T02:16:03.925Z,17.1
2018-06-30T02:17:04.177Z,17
2018-06-30T02:18:03.902Z,17.06
2018-06-30T02:19:03.627Z,17.1
2018-06-30T02:20:03.616Z,17.04
2018-06-30T02:21:03.865Z,17.03
2018-06-30T02:22:03.860Z,16.98
2018-06-30T02:23:04.169Z,17.08
2018-06-30T02:24:03.594Z,16.96
2018-06-30T02:25:03.821Z,16.95
2018-06-30T02:26:03.538Z,17.06
2018-06-30T02:27:04.078Z,16.92
2018-06-30T02:28:03.525Z,16.96
2018-06-30T02:29:03.775Z,16.96
2018-06-30T02:30:04.031Z,16.93
2018-06-30T02:31:03.753Z,16.89
2018-06-30T02:32:04.010Z,16.92
2018-06-30T02:33:03.999Z,16.95
2018-06-30T02:34:03.993Z,16.93
2018-06-30T02:35:03.704Z,16.93
2018-06-30T02:36:03.701Z,16.92
2018-06-30T02:37:03.678Z,16.86
2018-06-30T02:38:03.670Z,16.9
2018-06-30T02:39:03.420Z,16.86
2018-06-30T02:40:03.937Z,16.86
2018-06-30T02:41:03.642Z,16.86
2018-06-30T02:42:03.360Z,16.89
2018-06-30T02:43:03.623Z,16.86
2018-06-30T02:44:03.613Z,16.85
2018-06-30T02:45:03.910Z,16.77
2018-06-30T02:46:03.752Z,16.75
2018-06-30T02:47:03.323Z,16.71
2018-06-30T02:48:03.823Z,16.81
2018-06-30T02:49:03.539Z,16.73
2018-06-30T02:50:03.796Z,16.81
2018-06-30T02:51:03.517Z,16.77
2018-06-30T02:52:03.789Z,16.71
2018-06-30T02:53:03.490Z,16.78
2018-06-30T02:54:03.493Z,16.85
2018-06-30T02:55:03.735Z,16.88
2018-06-30T02:56:03.471Z,16.83
2018-06-30T02:57:03.453Z,16.67
2018-06-30T02:58:03.431Z,16.74
2018-06-30T02:59:03.427Z,16.71
2018-06-30T03:00:03.409Z,16.67
2018-06-30T03:01:03.147Z,16.85
2018-06-30T03:02:03.391Z,16.83
2018-06-30T03:03:03.719Z,16.85
2018-06-30T03:04:03.092Z,16.8
2018-06-30T03:05:03.348Z,16.85
2018-06-30T03:06:03.600Z,16.78
2018-06-30T03:07:03.599Z,16.85
2018-06-30T03:08:03.323Z,16.83
2018-06-30T03:09:03.570Z,16.77
2018-06-30T03:10:03.559Z,16.73
2018-06-30T03:11:03.285Z,16.81
2018-06-30T03:12:03.536Z,16.8
2018-06-30T03:13:03.519Z,16.65
2018-06-30T03:14:03.523Z,16.65
2018-06-30T03:15:03.496Z,16.83
2018-06-30T03:16:03.237Z,16.78
2018-06-30T03:17:03.489Z,16.78
2018-06-30T03:18:02.939Z,16.78
2018-06-30T03:19:03.186Z,16.78
2018-06-30T03:20:03.190Z,16.88
2018-06-30T03:21:03.426Z,16.83
2018-06-30T03:22:03.411Z,16.83
2018-06-30T03:23:03.136Z,16.83
2018-06-30T03:24:03.390Z,16.88
2018-06-30T03:25:03.103Z,16.89
2018-06-30T03:26:03.101Z,16.88
2018-06-30T03:27:03.353Z,16.96
2018-06-30T03:28:02.811Z,16.86
2018-06-30T03:29:02.796Z,16.9
2018-06-30T03:30:03.056Z,16.89
2018-06-30T03:31:03.047Z,16.93
2018-06-30T03:32:02.770Z,17.07
2018-06-30T03:33:03.015Z,17.04
2018-06-30T03:34:03.021Z,16.95
2018-06-30T03:35:02.932Z,16.98
2018-06-30T03:36:02.731Z,17.04
2018-06-30T03:37:02.976Z,17.07
2018-06-30T03:38:03.240Z,16.98
2018-06-30T03:39:02.943Z,17.04
2018-06-30T03:40:03.199Z,16.93
2018-06-30T03:41:02.919Z,17.1
2018-06-30T03:42:03.175Z,16.92
2018-06-30T03:43:02.896Z,17.08
2018-06-30T03:44:03.168Z,17.03
2018-06-30T03:45:02.616Z,17
2018-06-30T03:46:02.875Z,17
2018-06-30T03:47:02.856Z,17
2018-06-30T03:48:02.839Z,17
2018-06-30T03:49:02.832Z,17.07
2018-06-30T03:50:03.077Z,17
2018-06-30T03:51:02.802Z,17.04
2018-06-30T03:52:02.790Z,17.11
2018-06-30T03:53:02.785Z,17.07
2018-06-30T03:54:02.518Z,17.1
2018-06-30T03:55:03.040Z,17.15
2018-06-30T03:56:02.484Z,17.23
2018-06-30T03:57:02.736Z,17.28
2018-06-30T03:58:02.749Z,17.29
2018-06-30T03:59:02.711Z,17.41
2018-06-30T04:00:02.437Z,17.4
2018-06-30T04:01:02.953Z,17.35
2018-06-30T04:02:02.413Z,17.55
2018-06-30T04:03:02.676Z,17.43
2018-06-30T04:04:02.944Z,17.44
2018-06-30T04:05:02.653Z,17.57
2018-06-30T04:06:02.891Z,17.54
2018-06-30T04:07:02.885Z,17.54
2018-06-30T04:08:02.614Z,17.64
2018-06-30T04:09:02.864Z,17.54
2018-06-30T04:10:02.584Z,17.67
2018-06-30T04:11:02.578Z,17.67
2018-06-30T04:12:02.561Z,17.76
2018-06-30T04:13:02.289Z,17.69
2018-06-30T04:14:02.540Z,17.76
2018-06-30T04:15:02.259Z,17.78
2018-06-30T04:16:02.517Z,17.81
2018-06-30T04:17:02.247Z,17.85
2018-06-30T04:18:02.493Z,17.87
2018-06-30T04:19:02.491Z,17.85
2018-06-30T04:20:02.475Z,17.85
2018-06-30T04:21:02.724Z,17.97
2018-06-30T04:22:02.815Z,18.09
2018-06-30T04:23:02.701Z,18.07
2018-06-30T04:24:02.454Z,18.1
2018-06-30T04:25:02.422Z,18.12
2018-06-30T04:26:02.403Z,18.1
2018-06-30T04:27:02.128Z,18.21
2018-06-30T04:28:02.646Z,18.17
2018-06-30T04:29:02.113Z,18.22
2018-06-30T04:30:02.626Z,18.21
2018-06-30T04:31:02.609Z,18.22
2018-06-30T04:32:02.601Z,18.28
2018-06-30T04:33:02.065Z,18.21
2018-06-30T04:34:02.315Z,18.33
2018-06-30T04:35:02.310Z,18.29
2018-06-30T04:36:02.293Z,18.29
2018-06-30T04:37:02.283Z,18.29
2018-06-30T04:38:02.274Z,18.37
2018-06-30T04:39:01.995Z,18.34
2018-06-30T04:40:02.517Z,18.39
2018-06-30T04:41:02.241Z,18.42
2018-06-30T04:42:02.497Z,18.44
2018-06-30T04:43:02.223Z,18.43
2018-06-30T04:44:02.207Z,18.43
2018-06-30T04:45:02.475Z,18.42
2018-06-30T04:46:02.232Z,18.4
2018-06-30T04:47:02.174Z,18.43
2018-06-30T04:48:02.165Z,18.44
2018-06-30T04:49:02.162Z,18.37
2018-06-30T04:50:02.410Z,18.44
2018-06-30T04:51:02.201Z,18.47
2018-06-30T04:52:02.386Z,18.47
2018-06-30T04:53:02.110Z,18.47
2018-06-30T04:54:01.832Z,18.46
2018-06-30T04:55:02.094Z,18.54
2018-06-30T04:56:02.083Z,18.58
2018-06-30T04:57:02.328Z,18.58
2018-06-30T04:58:02.053Z,18.57
2018-06-30T04:59:02.045Z,18.61
2018-06-30T05:00:02.308Z,18.57
2018-06-30T05:01:02.019Z,18.59
2018-06-30T05:02:02.278Z,18.62
2018-06-30T05:03:01.737Z,18.64
2018-06-30T05:04:01.994Z,18.55
2018-06-30T05:05:02.243Z,18.61
2018-06-30T05:06:01.985Z,18.57
2018-06-30T05:07:01.956Z,18.59
2018-06-30T05:08:01.953Z,18.58
2018-06-30T05:09:01.931Z,18.65
2018-06-30T05:10:02.241Z,18.73
2018-06-30T05:11:02.183Z,18.61
2018-06-30T05:12:01.907Z,18.74
2018-06-30T05:13:02.294Z,18.79
2018-06-30T05:14:02.158Z,18.73
2018-06-30T05:15:01.608Z,18.82
2018-06-30T05:16:01.606Z,18.83
2018-06-30T05:17:02.111Z,18.8
2018-06-30T05:18:01.852Z,18.83
2018-06-30T05:19:01.834Z,18.79
2018-06-30T05:20:02.086Z,18.79
2018-06-30T05:21:01.803Z,18.83
2018-06-30T05:22:01.802Z,18.9
2018-06-30T05:23:01.532Z,18.91
2018-06-30T05:24:01.518Z,18.83
2018-06-30T05:25:01.764Z,18.84
2018-06-30T05:26:02.406Z,18.92
2018-06-30T05:27:02.012Z,18.83
2018-06-30T05:28:02.014Z,18.92
2018-06-30T05:29:01.730Z,18.94
2018-06-30T05:30:02.028Z,18.97
2018-06-30T05:31:01.975Z,18.98
2018-06-30T05:32:01.706Z,18.92
2018-06-30T05:33:01.692Z,19.05
2018-06-30T05:34:01.672Z,19.02
2018-06-30T05:35:02.140Z,19.06
2018-06-30T05:36:01.924Z,19.11
2018-06-30T05:37:01.919Z,19.14
2018-06-30T05:38:01.901Z,19.11
2018-06-30T05:39:01.627Z,19.15
2018-06-30T05:40:01.612Z,19.2
2018-06-30T05:41:01.334Z,19.18
2018-06-30T05:42:01.325Z,19.33
2018-06-30T05:43:01.581Z,19.31
2018-06-30T05:44:01.833Z,19.32
2018-06-30T05:45:01.562Z,19.38
2018-06-30T05:46:01.815Z,19.29
2018-06-30T05:47:01.825Z,19.4
2018-06-30T05:48:01.267Z,19.35
2018-06-30T05:49:01.782Z,19.39
2018-06-30T05:50:01.771Z,19.42
2018-06-30T05:51:01.498Z,19.39
2018-06-30T05:52:01.481Z,19.39
2018-06-30T05:53:01.479Z,19.5
2018-06-30T05:54:01.465Z,19.42
2018-06-30T05:55:01.729Z,19.42
2018-06-30T05:56:01.179Z,19.54
2018-06-30T05:57:01.694Z,19.55
2018-06-30T05:58:01.692Z,19.48
2018-06-30T05:59:01.416Z,19.58
2018-06-30T06:00:01.410Z,19.61
2018-06-30T06:01:01.398Z,19.61
2018-06-30T06:02:01.392Z,19.63
2018-06-30T06:03:01.640Z,19.66
2018-06-30T06:04:01.104Z,19.66
2018-06-30T06:05:01.350Z,19.61
2018-06-30T06:06:01.618Z,19.7
2018-06-30T06:07:01.334Z,19.73
2018-06-30T06:08:01.333Z,19.72
2018-06-30T06:09:01.579Z,19.83
2018-06-30T06:10:01.440Z,19.75
2018-06-30T06:11:01.555Z,19.84
2018-06-30T06:12:01.290Z,19.84
2018-06-30T06:13:01.011Z,19.87
2018-06-30T06:14:01.262Z,19.95
2018-06-30T06:15:01.591Z,19.91
2018-06-30T06:16:00.978Z,20
2018-06-30T06:17:01.508Z,20
2018-06-30T06:18:01.492Z,20.06
2018-06-30T06:19:01.480Z,20.1
2018-06-30T06:20:01.017Z,20.2
2018-06-30T06:21:01.192Z,20.39
2018-06-30T06:22:01.186Z,20.68
2018-06-30T06:23:00.913Z,21.32
2018-06-30T06:24:01.165Z,21.97
2018-06-30T06:25:01.420Z,22.46
2018-06-30T06:26:01.683Z,22.97
2018-06-30T06:27:01.403Z,23.24
2018-06-30T06:28:01.405Z,23.29
2018-06-30T06:29:01.127Z,22.99
2018-06-30T06:30:00.849Z,22.71
2018-06-30T06:31:01.105Z,22.43
2018-06-30T06:32:01.360Z,22.16
2018-06-30T06:33:01.101Z,22.02
2018-06-30T06:34:01.086Z,21.88
2018-06-30T06:35:01.351Z,21.67
2018-06-30T06:36:01.063Z,21.54
2018-06-30T06:37:01.313Z,21.54
2018-06-30T06:38:01.314Z,21.45
2018-06-30T06:39:01.317Z,21.26
2018-06-30T06:40:01.025Z,21.27
2018-06-30T06:41:00.759Z,21.29
2018-06-30T06:42:01.289Z,21.21
2018-06-30T06:43:00.741Z,21.23
2018-06-30T06:44:01.258Z,21.11
2018-06-30T06:45:00.991Z,21.09
2018-06-30T06:46:00.976Z,21.13
2018-06-30T06:47:00.700Z,21.2
2018-06-30T06:48:00.960Z,21.06
2018-06-30T06:49:01.215Z,21.13
2018-06-30T06:50:00.938Z,21.21
2018-06-30T06:51:00.997Z,21.39
2018-06-30T06:52:00.658Z,22.01
2018-06-30T06:53:00.921Z,22.64
2018-06-30T06:54:00.637Z,23.2
2018-06-30T06:55:00.900Z,23.4
2018-06-30T06:56:00.633Z,23.05
2018-06-30T06:57:01.149Z,22.89
2018-06-30T06:58:00.876Z,22.87
2018-06-30T06:59:00.869Z,23.29
2018-06-30T07:00:01.126Z,24.01
2018-06-30T07:01:01.134Z,25.07
2018-06-30T07:02:01.116Z,25.98
2018-06-30T07:03:00.864Z,26.81
2018-06-30T07:04:00.832Z,27.28
2018-06-30T07:05:00.854Z,27.91
2018-06-30T07:06:00.814Z,28.19
2018-06-30T07:07:00.559Z,28.5
2018-06-30T07:08:01.069Z,28.75
2018-06-30T07:09:00.815Z,29
2018-06-30T07:10:00.528Z,29.33
2018-06-30T07:11:00.519Z,29.56
2018-06-30T07:12:00.779Z,29.7
2018-06-30T07:13:00.819Z,29.79
2018-06-30T07:14:01.029Z,29.72
2018-06-30T07:15:01.013Z,29.74
2018-06-30T07:16:01.007Z,29.99
2018-06-30T07:17:01.006Z,30.15
2018-06-30T07:18:00.738Z,30.33
2018-06-30T07:19:00.988Z,30.15
2018-06-30T07:20:00.710Z,30.21
2018-06-30T07:21:00.714Z,30.53
2018-06-30T07:22:00.714Z,30.86
2018-06-30T07:23:00.970Z,31.06
2018-06-30T07:24:00.432Z,31.27
2018-06-30T07:25:00.427Z,31.5
2018-06-30T07:26:00.684Z,31.61
2018-06-30T07:27:00.945Z,31.75
2018-06-30T07:28:00.720Z,32.15
2018-06-30T07:29:00.680Z,32.48
2018-06-30T07:30:00.695Z,32.77
2018-06-30T07:31:00.657Z,32.73
2018-06-30T07:32:00.930Z,32.84
2018-06-30T07:33:00.653Z,32.8
2018-06-30T07:34:00.655Z,32.86
2018-06-30T07:35:00.592Z,32.81
2018-06-30T07:36:00.380Z,33.04
2018-06-30T07:37:00.925Z,32.84
2018-06-30T07:38:00.643Z,33.11
2018-06-30T07:39:00.643Z,32.91
2018-06-30T07:40:00.642Z,33.08
2018-06-30T07:41:00.899Z,33.46
2018-06-30T07:42:00.640Z,33.89
2018-06-30T07:43:00.369Z,34.19
2018-06-30T07:44:00.369Z,34.32
2018-06-30T07:45:00.908Z,34.5
2018-06-30T07:46:00.640Z,34.54
2018-06-30T07:47:00.635Z,34.46
2018-06-30T07:48:00.678Z,34.53
2018-06-30T07:49:00.899Z,34.94
2018-06-30T07:50:00.650Z,34.69
2018-06-30T07:51:00.388Z,34.63
2018-06-30T07:52:00.648Z,34.42
2018-06-30T07:53:00.638Z,34.22
2018-06-30T07:54:00.905Z,34.14
2018-06-30T07:55:00.635Z,34.19
2018-06-30T07:56:00.909Z,34.26
2018-06-30T07:57:00.642Z,34.08
2018-06-30T07:58:00.648Z,33.97
2018-06-30T07:59:00.641Z,34.17
2018-06-30T08:00:00.642Z,34.24
2018-06-30T08:01:00.912Z,34.35
2018-06-30T08:02:00.961Z,34.61
2018-06-30T08:03:00.915Z,34.7
2018-06-30T08:04:00.835Z,34.57
2018-06-30T08:05:00.669Z,34.45
2018-06-30T08:06:00.935Z,34.66
2018-06-30T08:07:00.917Z,34.72
2018-06-30T08:08:00.661Z,34.63
2018-06-30T08:09:00.700Z,34.45
2018-06-30T08:10:00.676Z,34.39
2018-06-30T08:11:00.667Z,34.17
2018-06-30T08:12:00.667Z,34.46
2018-06-30T08:13:00.681Z,34.5
2018-06-30T08:14:01.163Z,34.61
2018-06-30T08:15:00.674Z,34.95
2018-06-30T08:16:00.946Z,35.11
2018-06-30T08:17:00.949Z,35.06
2018-06-30T08:18:00.684Z,35.2
2018-06-30T08:19:00.690Z,35.11
2018-06-30T08:20:00.432Z,35.01
2018-06-30T08:21:00.701Z,35.02
2018-06-30T08:22:00.958Z,34.95
2018-06-30T08:23:00.709Z,35.13
2018-06-30T08:24:00.970Z,35.4
2018-06-30T08:25:00.981Z,35.44
2018-06-30T08:26:00.978Z,35.35
2018-06-30T08:27:00.980Z,35.57
2018-06-30T08:28:00.479Z,35.89
2018-06-30T08:29:00.729Z,35.92
2018-06-30T08:30:00.725Z,35.97
2018-06-30T08:31:01.032Z,35.57
2018-06-30T08:32:00.748Z,35.32
2018-06-30T08:33:01.010Z,34.95
2018-06-30T08:34:00.750Z,34.41
2018-06-30T08:35:00.748Z,34.22
2018-06-30T08:36:00.501Z,34.19
2018-06-30T08:37:00.754Z,34.32
2018-06-30T08:38:00.759Z,34.13
2018-06-30T08:39:00.497Z,34.04
2018-06-30T08:40:00.766Z,33.85
2018-06-30T08:41:00.503Z,33.46
2018-06-30T08:42:01.034Z,33.01
2018-06-30T08:43:00.818Z,32.66
2018-06-30T08:44:00.511Z,32.47
2018-06-30T08:45:00.782Z,31.96
2018-06-30T08:46:00.779Z,31.65
2018-06-30T08:47:01.055Z,31.31
2018-06-30T08:48:00.785Z,31.01
2018-06-30T08:49:00.784Z,30.37
2018-06-30T08:50:00.784Z,29.97
2018-06-30T08:51:00.796Z,29.59
2018-06-30T08:52:01.049Z,29.31
2018-06-30T08:53:00.793Z,29.13
2018-06-30T08:54:01.061Z,28.68
2018-06-30T08:55:00.787Z,28.46
2018-06-30T08:56:01.052Z,28.23
2018-06-30T08:57:00.530Z,28.04
2018-06-30T08:58:00.785Z,27.86
2018-06-30T08:59:01.065Z,27.7
2018-06-30T09:00:00.790Z,27.62
2018-06-30T09:01:00.782Z,28.04
2018-06-30T09:02:00.780Z,28.31
2018-06-30T09:03:00.522Z,28.81
2018-06-30T09:04:00.791Z,29.52
2018-06-30T09:05:01.047Z,30.43
2018-06-30T09:06:01.050Z,30.54
2018-06-30T09:07:00.788Z,30.71
2018-06-30T09:08:00.520Z,31.13
2018-06-30T09:09:00.528Z,31.39
2018-06-30T09:10:00.530Z,31.7
2018-06-30T09:11:00.801Z,31.96
2018-06-30T09:12:01.228Z,31.92
2018-06-30T09:13:00.792Z,32.22
2018-06-30T09:14:00.800Z,32.35
2018-06-30T09:15:01.069Z,32.61
2018-06-30T09:16:01.067Z,32.79
2018-06-30T09:17:00.806Z,32.92
2018-06-30T09:18:00.553Z,32.96
2018-06-30T09:19:00.812Z,32.91
2018-06-30T09:20:00.551Z,32.89
2018-06-30T09:21:00.563Z,32.4
2018-06-30T09:22:00.828Z,32.14
2018-06-30T09:23:00.832Z,32
2018-06-30T09:24:01.096Z,31.76
2018-06-30T09:25:00.843Z,31.67
2018-06-30T09:26:00.840Z,31.45
2018-06-30T09:27:00.840Z,31.2
2018-06-30T09:28:00.840Z,31.08
2018-06-30T09:29:01.110Z,30.99
2018-06-30T09:30:01.129Z,30.83
2018-06-30T09:31:00.894Z,30.9
2018-06-30T09:32:00.861Z,30.83
2018-06-30T09:33:00.857Z,30.69
2018-06-30T09:34:01.129Z,29.97
2018-06-30T09:35:01.332Z,29.94
2018-06-30T09:36:00.863Z,29.94
2018-06-30T09:37:00.868Z,30.05
2018-06-30T09:38:01.289Z,30.02
2018-06-30T09:39:00.877Z,30
2018-06-30T09:40:00.876Z,30.07
2018-06-30T09:41:00.877Z,30.11
2018-06-30T09:42:00.923Z,30.09
2018-06-30T09:43:00.625Z,30.27
2018-06-30T09:44:00.627Z,30.05
2018-06-30T09:45:00.633Z,30.12
2018-06-30T09:46:00.646Z,29.97
2018-06-30T09:47:00.905Z,29.93
2018-06-30T09:48:01.175Z,29.81
2018-06-30T09:49:00.908Z,29.72
2018-06-30T09:50:00.647Z,29.71
2018-06-30T09:51:01.389Z,29.77
2018-06-30T09:52:01.191Z,29.45
2018-06-30T09:53:00.944Z,29.26
2018-06-30T09:54:01.255Z,29.11
2018-06-30T09:55:01.404Z,28.88
2018-06-30T09:56:00.921Z,28.73
2018-06-30T09:57:00.664Z,28.65
2018-06-30T09:58:01.397Z,28.54
2018-06-30T09:59:00.931Z,28.6
2018-06-30T10:00:00.922Z,28.4
2018-06-30T10:01:00.925Z,28.47
2018-06-30T10:02:00.669Z,28.36
2018-06-30T10:03:00.932Z,28.33
2018-06-30T10:04:00.927Z,28.26
2018-06-30T10:05:00.925Z,28.1
2018-06-30T10:06:00.923Z,28.07
2018-06-30T10:07:01.267Z,28.04
2018-06-30T10:08:01.187Z,27.88
2018-06-30T10:09:01.193Z,27.79
2018-06-30T10:10:00.652Z,27.76
2018-06-30T10:11:00.920Z,27.86
2018-06-30T10:12:00.907Z,27.77
2018-06-30T10:13:01.177Z,27.91
2018-06-30T10:14:00.910Z,27.99
2018-06-30T10:15:01.173Z,27.98
2018-06-30T10:16:00.907Z,28.01
2018-06-30T10:17:00.644Z,28.01
2018-06-30T10:18:00.909Z,27.94
2018-06-30T10:19:00.907Z,27.96
2018-06-30T10:20:00.642Z,27.99
2018-06-30T10:21:01.234Z,28.09
2018-06-30T10:22:00.907Z,28.16
2018-06-30T10:23:00.893Z,28.26
2018-06-30T10:24:00.900Z,28.32
2018-06-30T10:25:00.630Z,28.35
2018-06-30T10:26:00.942Z,28.44
2018-06-30T10:27:01.156Z,28.62
2018-06-30T10:28:01.172Z,28.95
2018-06-30T10:29:01.191Z,29.18
2018-06-30T10:30:00.897Z,29.65
2018-06-30T10:31:00.900Z,30.18
2018-06-30T10:32:00.894Z,30.45
2018-06-30T10:33:01.163Z,30.9
2018-06-30T10:34:00.630Z,31.21
2018-06-30T10:35:01.179Z,31.35
2018-06-30T10:36:00.905Z,31.75
2018-06-30T10:37:00.911Z,32.24
2018-06-30T10:38:01.176Z,32.81
2018-06-30T10:39:01.170Z,32.7
2018-06-30T10:40:00.922Z,32.76
2018-06-30T10:41:01.188Z,33.07
2018-06-30T10:42:00.925Z,33.31
2018-06-30T10:43:00.669Z,33.6
2018-06-30T10:44:00.668Z,34.02
2018-06-30T10:45:00.941Z,34.39
2018-06-30T10:46:01.213Z,34.31
2018-06-30T10:47:00.954Z,33.92
2018-06-30T10:48:00.950Z,33.92
2018-06-30T10:49:00.963Z,33.85
2018-06-30T10:50:00.963Z,33.89
2018-06-30T10:51:00.983Z,33.98
2018-06-30T10:52:00.983Z,34.39
2018-06-30T10:53:01.252Z,34.46
2018-06-30T10:54:01.260Z,34.79
2018-06-30T10:55:00.749Z,34.72
2018-06-30T10:56:01.012Z,34.61
2018-06-30T10:57:01.277Z,34.89
2018-06-30T10:58:01.278Z,35.03
2018-06-30T10:59:01.027Z,35.11
2018-06-30T11:00:01.310Z,35.48
2018-06-30T11:01:00.784Z,35.7
2018-06-30T11:02:01.332Z,35.89
2018-06-30T11:03:00.795Z,35.84
2018-06-30T11:04:01.195Z,36.03
2018-06-30T11:05:01.071Z,35.77
2018-06-30T11:06:01.697Z,35.76
2018-06-30T11:07:01.096Z,35.77
2018-06-30T11:08:00.832Z,35.62
2018-06-30T11:09:00.846Z,35.18
2018-06-30T11:10:00.850Z,35.3
2018-06-30T11:11:01.254Z,35.5
2018-06-30T11:12:01.394Z,35.62
2018-06-30T11:13:01.145Z,35.23
2018-06-30T11:14:01.146Z,35.2
2018-06-30T11:15:00.886Z,35.39
2018-06-30T11:16:01.161Z,35.7
2018-06-30T11:17:01.169Z,35.89
2018-06-30T11:18:01.443Z,35.89
2018-06-30T11:19:00.917Z,36.27
2018-06-30T11:20:01.251Z,36.42
2018-06-30T11:21:01.463Z,36.31
2018-06-30T11:22:01.211Z,36.17
2018-06-30T11:23:01.477Z,36.31
2018-06-30T11:24:01.222Z,36.42
2018-06-30T11:25:01.236Z,36.58
2018-06-30T11:26:00.981Z,36.48
2018-06-30T11:27:00.986Z,36.46
2018-06-30T11:28:01.002Z,36.14
2018-06-30T11:29:01.266Z,36.24
2018-06-30T11:30:01.009Z,36.15
2018-06-30T11:31:01.031Z,36.17
2018-06-30T11:32:01.298Z,36.14
2018-06-30T11:33:01.345Z,36.01
2018-06-30T11:34:01.327Z,35.93
2018-06-30T11:35:01.802Z,35.99
2018-06-30T11:36:01.334Z,35.74
2018-06-30T11:37:01.070Z,35.67
2018-06-30T11:38:01.349Z,35.81
2018-06-30T11:39:01.352Z,35.82
2018-06-30T11:40:01.094Z,35.89
2018-06-30T11:41:01.557Z,36
2018-06-30T11:42:01.384Z,36.23
2018-06-30T11:43:01.392Z,36.24
2018-06-30T11:44:01.397Z,35.93
2018-06-30T11:45:01.145Z,35.72
2018-06-30T11:46:01.419Z,35.79
2018-06-30T11:47:01.425Z,35.62
2018-06-30T11:48:01.442Z,35.35
2018-06-30T11:49:01.442Z,35.47
2018-06-30T11:50:01.185Z,35.45
2018-06-30T11:51:01.575Z,35.36
2018-06-30T11:52:01.201Z,35.54
2018-06-30T11:53:01.744Z,35.69
2018-06-30T11:54:01.747Z,35.79
2018-06-30T11:55:01.494Z,35.97
2018-06-30T11:56:01.511Z,36.3
2018-06-30T11:57:01.512Z,36.45
2018-06-30T11:58:01.784Z,36.31
2018-06-30T11:59:01.536Z,36.39
2018-06-30T12:00:01.547Z,36.65
2018-06-30T12:01:01.553Z,36.64
2018-06-30T12:02:01.931Z,36.43
2018-06-30T12:03:01.915Z,36.26
2018-06-30T12:04:01.880Z,35.69
2018-06-30T12:05:01.320Z,35.99
2018-06-30T12:06:01.591Z,35.81
2018-06-30T12:07:01.610Z,35.54
2018-06-30T12:08:01.348Z,35.45
2018-06-30T12:09:01.612Z,35.77
2018-06-30T12:10:01.628Z,35.84
2018-06-30T12:11:01.633Z,36.36
2018-06-30T12:12:01.929Z,36.67
2018-06-30T12:13:01.384Z,36.75
2018-06-30T12:14:01.661Z,36.97
2018-06-30T12:15:01.672Z,36.26
2018-06-30T12:16:01.678Z,36.27
2018-06-30T12:17:01.693Z,36.48
2018-06-30T12:18:01.697Z,36.58
2018-06-30T12:19:01.709Z,36.77
2018-06-30T12:20:01.723Z,36.97
2018-06-30T12:21:02.012Z,37.17
2018-06-30T12:22:01.744Z,37.14
2018-06-30T12:23:02.022Z,36.99
2018-06-30T12:24:01.748Z,37.05
2018-06-30T12:25:02.039Z,36.91
2018-06-30T12:26:02.034Z,36.92
2018-06-30T12:27:01.790Z,36.98
2018-06-30T12:28:01.527Z,36.8
2018-06-30T12:29:02.060Z,35.74
2018-06-30T12:30:02.071Z,35.79
2018-06-30T12:31:02.081Z,36.19
2018-06-30T12:32:02.234Z,35.88
2018-06-30T12:33:02.097Z,35.2
2018-06-30T12:34:01.842Z,35.1
2018-06-30T12:35:01.861Z,35.33
2018-06-30T12:36:01.603Z,35.37
2018-06-30T12:37:01.876Z,35.3
2018-06-30T12:38:02.146Z,35.5
2018-06-30T12:39:02.206Z,36.04
2018-06-30T12:40:01.637Z,36.43
2018-06-30T12:41:01.909Z,36.72
2018-06-30T12:42:01.655Z,36.85
2018-06-30T12:43:01.669Z,36.94
2018-06-30T12:44:01.932Z,37.16
2018-06-30T12:45:02.467Z,37.12
2018-06-30T12:46:01.961Z,36.99
2018-06-30T12:47:01.965Z,36.73
2018-06-30T12:48:01.707Z,36.61
2018-06-30T12:49:01.983Z,36.57
2018-06-30T12:50:01.987Z,36.79
2018-06-30T12:51:01.738Z,36.99
2018-06-30T12:52:02.281Z,36.94
2018-06-30T12:53:02.018Z,35.84
2018-06-30T12:54:02.030Z,35.52
2018-06-30T12:55:02.088Z,35.63
2018-06-30T12:56:02.048Z,35.58